sensor_id;sensor_type;location;lat;lon;timestamp;pressure;altitude;pressure_sealevel;temperature;humidity
45621;BME280;31345;51.522;10.702;2023-02-13T00:01:02;101248.50;;;5.69;100.00
45621;BME280;31345;51.522;10.702;2023-02-13T00:03:36;101253.84;;;5.55;100.00
45621;BME280;31345;51.522;10.702;2023-02-13T00:06:09;101250.25;;;5.63;100.00
45621;BME280;31345;51.522;10.702;2023-02-13T00:08:41;101258.97;;;5.58;100.00
45621;BME280;31345;51.522;10.702;2023-02-13T00:11:14;101260.66;;;5.62;100.00
45621;BME280;31345;51.522;10.702;2023-02-13T00:13:42;101250.97;;;5.81;100.00
45621;BME280;31345;51.522;10.702;2023-02-13T00:16:09;101256.22;;;5.73;100.00
45621;BME280;31345;51.522;10.702;2023-02-13T00:18:38;101244.19;;;5.66;100.00
45621;BME280;31345;51.522;10.702;2023-02-13T00:21:12;101252.06;;;5.58;100.00
45621;BME280;31345;51.522;10.702;2023-02-13T00:23:44;101254.63;;;5.60;100.00
45621;BME280;31345;51.522;10.702;2023-02-13T00:26:14;101252.03;;;5.63;100.00
45621;BME280;31345;51.522;10.702;2023-02-13T00:28:44;101246.00;;;5.58;100.00
45621;BME280;31345;51.522;10.702;2023-02-13T00:31:19;101245.94;;;5.64;100.00
45621;BME280;31345;51.522;10.702;2023-02-13T00:33:48;101243.13;;;5.84;100.00
45621;BME280;31345;51.522;10.702;2023-02-13T00:36:18;101239.81;;;5.73;100.00
45621;BME280;31345;51.522;10.702;2023-02-13T00:38:46;101240.78;;;5.61;100.00
45621;BME280;31345;51.522;10.702;2023-02-13T00:41:20;101243.41;;;5.58;100.00
45621;BME280;31345;51.522;10.702;2023-02-13T00:43:48;101240.66;;;5.72;100.00
45621;BME280;31345;51.522;10.702;2023-02-13T00:46:21;101236.47;;;5.61;100.00
45621;BME280;31345;51.522;10.702;2023-02-13T00:48:49;101243.38;;;5.61;100.00
45621;BME280;31345;51.522;10.702;2023-02-13T00:51:17;101245.06;;;5.63;100.00
45621;BME280;31345;51.522;10.702;2023-02-13T00:53:50;101252.88;;;5.63;100.00
45621;BME280;31345;51.522;10.702;2023-02-13T00:56:22;101248.50;;;5.69;100.00
45621;BME280;31345;51.522;10.702;2023-02-13T00:58:50;101250.09;;;5.79;100.00
45621;BME280;31345;51.522;10.702;2023-02-13T01:01:23;101252.09;;;5.55;100.00
45621;BME280;31345;51.522;10.702;2023-02-13T01:03:56;101259.16;;;5.39;100.00
45621;BME280;31345;51.522;10.702;2023-02-13T01:06:24;101254.78;;;5.46;100.00
45621;BME280;31345;51.522;10.702;2023-02-13T01:08:51;101259.06;;;5.50;100.00
45621;BME280;31345;51.522;10.702;2023-02-13T01:11:24;101258.25;;;5.43;100.00
45621;BME280;31345;51.522;10.702;2023-02-13T01:13:52;101253.94;;;5.42;100.00
45621;BME280;31345;51.522;10.702;2023-02-13T01:16:25;101257.38;;;5.44;100.00
45621;BME280;31345;51.522;10.702;2023-02-13T01:18:59;101254.75;;;5.50;100.00
45621;BME280;31345;51.522;10.702;2023-02-13T01:21:31;101251.28;;;5.47;100.00
45621;BME280;31345;51.522;10.702;2023-02-13T01:24:02;101254.78;;;5.44;100.00
45621;BME280;31345;51.522;10.702;2023-02-13T01:26:35;101252.16;;;5.50;100.00
45621;BME280;31345;51.522;10.702;2023-02-13T01:29:02;101251.28;;;5.47;100.00
45621;BME280;31345;51.522;10.702;2023-02-13T01:31:30;101253.06;;;5.43;100.00
45621;BME280;31345;51.522;10.702;2023-02-13T01:33:59;101251.41;;;5.36;100.00
45621;BME280;31345;51.522;10.702;2023-02-13T01:36:31;101254.13;;;5.23;100.00
45621;BME280;31345;51.522;10.702;2023-02-13T01:38:59;101252.19;;;5.44;100.00
45621;BME280;31345;51.522;10.702;2023-02-13T01:41:32;101246.88;;;5.58;100.00
45621;BME280;31345;51.522;10.702;2023-02-13T01:44:00;101246.97;;;5.50;100.00
45621;BME280;31345;51.522;10.702;2023-02-13T01:46:35;101246.19;;;5.41;100.00
45621;BME280;31345;51.522;10.702;2023-02-13T01:49:12;101250.53;;;5.34;100.00
45621;BME280;31345;51.522;10.702;2023-02-13T01:51:44;101245.44;;;5.29;100.00
45621;BME280;31345;51.522;10.702;2023-02-13T01:54:21;101239.31;;;5.35;100.00
45621;BME280;31345;51.522;10.702;2023-02-13T01:56:58;101234.97;;;5.34;100.00
45621;BME280;31345;51.522;10.702;2023-02-13T01:59:36;101236.78;;;5.26;100.00
45621;BME280;31345;51.522;10.702;2023-02-13T02:02:09;101236.81;;;5.22;100.00
45621;BME280;31345;51.522;10.702;2023-02-13T02:04:39;101235.97;;;5.22;100.00
45621;BME280;31345;51.522;10.702;2023-02-13T02:07:21;101237.56;;;5.37;100.00
45621;BME280;31345;51.522;10.702;2023-02-13T02:09:52;101237.63;;;5.29;100.00
45621;BME280;31345;51.522;10.702;2023-02-13T02:12:31;101233.28;;;5.33;100.00
45621;BME280;31345;51.522;10.702;2023-02-13T02:15:06;101229.84;;;5.29;100.00
45621;BME280;31345;51.522;10.702;2023-02-13T02:17:39;101223.81;;;5.27;100.00
45621;BME280;31345;51.522;10.702;2023-02-13T02:20:18;101222.91;;;5.30;100.00
45621;BME280;31345;51.522;10.702;2023-02-13T02:23:16;101223.84;;;5.24;100.00
45621;BME280;31345;51.522;10.702;2023-02-13T02:29:30;101216.13;;;5.19;100.00
45621;BME280;31345;51.522;10.702;2023-02-13T02:35:13;101220.41;;;5.22;100.00
45621;BME280;31345;51.522;10.702;2023-02-13T02:38:01;101214.31;;;5.26;100.00
45621;BME280;31345;51.522;10.702;2023-02-13T02:40:42;101215.19;;;5.27;100.00
45621;BME280;31345;51.522;10.702;2023-02-13T02:43:27;101218.72;;;5.16;100.00
45621;BME280;31345;51.522;10.702;2023-02-13T02:46:08;101213.47;;;5.22;100.00
45621;BME280;31345;51.522;10.702;2023-02-13T02:48:48;101211.84;;;5.15;100.00
45621;BME280;31345;51.522;10.702;2023-02-13T02:51:47;101210.88;;;5.24;100.00
45621;BME280;31345;51.522;10.702;2023-02-13T02:54:29;101210.03;;;5.20;100.00
45621;BME280;31345;51.522;10.702;2023-02-13T02:57:23;101206.66;;;5.14;100.00
45621;BME280;31345;51.522;10.702;2023-02-13T03:00:14;101211.88;;;5.10;100.00
45621;BME280;31345;51.522;10.702;2023-02-13T03:03:10;101212.75;;;5.08;100.00
45621;BME280;31345;51.522;10.702;2023-02-13T03:06:00;101215.25;;;5.19;100.00
45621;BME280;31345;51.522;10.702;2023-02-13T03:08:51;101209.22;;;5.17;100.00
45621;BME280;31345;51.522;10.702;2023-02-13T03:11:38;101206.53;;;5.26;100.00
45621;BME280;31345;51.522;10.702;2023-02-13T03:14:26;101211.00;;;5.08;100.00
45621;BME280;31345;51.522;10.702;2023-02-13T03:16:55;101200.69;;;5.05;100.00
45621;BME280;31345;51.522;10.702;2023-02-13T03:19:56;101206.72;;;5.06;100.00
45621;BME280;31345;51.522;10.702;2023-02-13T03:22:59;101209.28;;;5.06;100.00
45621;BME280;31345;51.522;10.702;2023-02-13T03:25:34;101216.22;;;5.07;100.00
45621;BME280;31345;51.522;10.702;2023-02-13T03:28:11;101211.88;;;5.07;100.00
45621;BME280;31345;51.522;10.702;2023-02-13T03:31:11;101206.78;;;4.98;100.00
45621;BME280;31345;51.522;10.702;2023-02-13T03:33:55;101210.31;;;4.89;100.00
45621;BME280;31345;51.522;10.702;2023-02-13T03:36:36;101207.72;;;4.89;100.00
45621;BME280;31345;51.522;10.702;2023-02-13T03:39:46;101206.72;;;5.04;100.00
45621;BME280;31345;51.522;10.702;2023-02-13T03:42:20;101212.78;;;5.03;100.00
45621;BME280;31345;51.522;10.702;2023-02-13T03:44:57;101204.13;;;5.06;100.00
45621;BME280;31345;51.522;10.702;2023-02-13T03:47:45;101210.13;;;5.11;100.00
45621;BME280;31345;51.522;10.702;2023-02-13T03:50:16;101209.19;;;5.18;100.00
45621;BME280;31345;51.522;10.702;2023-02-13T03:52:51;101203.16;;;5.16;100.00
45621;BME280;31345;51.522;10.702;2023-02-13T03:55:23;101207.59;;;5.05;100.00
45621;BME280;31345;51.522;10.702;2023-02-13T03:58:17;101216.25;;;5.04;100.00
45621;BME280;31345;51.522;10.702;2023-02-13T04:01:07;101214.53;;;5.01;100.00
45621;BME280;31345;51.522;10.702;2023-02-13T04:03:44;101214.47;;;5.07;100.00
45621;BME280;31345;51.522;10.702;2023-02-13T04:06:24;101213.63;;;5.07;100.00
45621;BME280;31345;51.522;10.702;2023-02-13T04:08:53;101211.06;;;5.05;100.00
45621;BME280;31345;51.522;10.702;2023-02-13T04:11:32;101216.22;;;5.07;100.00
45621;BME280;31345;51.522;10.702;2023-02-13T04:14:10;101223.16;;;5.05;100.00
45621;BME280;31345;51.522;10.702;2023-02-13T04:16:43;101215.34;;;5.08;100.00
45621;BME280;31345;51.522;10.702;2023-02-13T04:19:17;101218.72;;;5.16;100.00
45621;BME280;31345;51.522;10.702;2023-02-13T04:21:55;101218.75;;;5.15;100.00
45621;BME280;31345;51.522;10.702;2023-02-13T04:24:28;101214.47;;;5.07;100.00
45621;BME280;31345;51.522;10.702;2023-02-13T04:27:02;101204.13;;;5.06;100.00
45621;BME280;31345;51.522;10.702;2023-02-13T04:29:30;101210.97;;;5.15;100.00
45621;BME280;31345;51.522;10.702;2023-02-13T04:32:02;101214.38;;;5.20;100.00
45621;BME280;31345;51.522;10.702;2023-02-13T04:34:30;101215.38;;;5.05;100.00
45621;BME280;31345;51.522;10.702;2023-02-13T04:37:03;101214.47;;;5.07;100.00
45621;BME280;31345;51.522;10.702;2023-02-13T04:39:30;101212.78;;;5.05;100.00
45621;BME280;31345;51.522;10.702;2023-02-13T04:41:58;101208.44;;;5.07;100.00
45621;BME280;31345;51.522;10.702;2023-02-13T04:44:32;101208.47;;;5.02;100.00
45621;BME280;31345;51.522;10.702;2023-02-13T04:47:04;101211.84;;;5.15;100.00
45621;BME280;31345;51.522;10.702;2023-02-13T04:49:32;101207.59;;;5.03;100.00
45621;BME280;31345;51.522;10.702;2023-02-13T04:51:59;101213.59;;;5.10;100.00
45621;BME280;31345;51.522;10.702;2023-02-13T04:54:27;101209.38;;;4.98;100.00
45621;BME280;31345;51.522;10.702;2023-02-13T04:56:59;101210.25;;;4.98;100.00
45621;BME280;31345;51.522;10.702;2023-02-13T04:59:33;101211.84;;;5.12;100.00
45621;BME280;31345;51.522;10.702;2023-02-13T05:02:06;101197.22;;;5.05;100.00
45621;BME280;31345;51.522;10.702;2023-02-13T05:04:33;101202.22;;;5.25;100.00
45621;BME280;31345;51.522;10.702;2023-02-13T05:07:06;101198.88;;;5.12;100.00
45621;BME280;31345;51.522;10.702;2023-02-13T05:09:33;101200.56;;;5.16;100.00
45621;BME280;31345;51.522;10.702;2023-02-13T05:12:06;101199.69;;;5.17;100.00
45621;BME280;31345;51.522;10.702;2023-02-13T05:14:40;101199.78;;;5.08;100.00
45621;BME280;31345;51.522;10.702;2023-02-13T05:17:07;101201.53;;;5.04;100.00
45621;BME280;31345;51.522;10.702;2023-02-13T05:19:40;101199.88;;;4.98;100.00
45621;BME280;31345;51.522;10.702;2023-02-13T05:22:13;101199.00;;;4.98;100.00
45621;BME280;31345;51.522;10.702;2023-02-13T05:24:57;101205.88;;;5.04;100.00
45621;BME280;31345;51.522;10.702;2023-02-13T05:27:30;101208.50;;;5.01;100.00
45621;BME280;31345;51.522;10.702;2023-02-13T05:29:59;101205.06;;;4.98;100.00
45621;BME280;31345;51.522;10.702;2023-02-13T05:32:25;101195.56;;;4.94;100.00
45621;BME280;31345;51.522;10.702;2023-02-13T05:34:53;101208.50;;;4.97;100.00
45621;BME280;31345;51.522;10.702;2023-02-13T05:37:20;101197.28;;;4.98;100.00
45621;BME280;31345;51.522;10.702;2023-02-13T05:39:53;101205.91;;;4.99;100.00
45621;BME280;31345;51.522;10.702;2023-02-13T05:42:20;101214.53;;;5.01;100.00
45621;BME280;31345;51.522;10.702;2023-02-13T05:44:48;101209.34;;;5.03;100.00
45621;BME280;31345;51.522;10.702;2023-02-13T05:47:22;101210.16;;;5.09;100.00
45621;BME280;31345;51.522;10.702;2023-02-13T05:49:54;101214.47;;;5.07;100.00
45621;BME280;31345;51.522;10.702;2023-02-13T05:52:27;101212.75;;;5.08;100.00
45621;BME280;31345;51.522;10.702;2023-02-13T05:54:59;101213.69;;;4.99;100.00
45621;BME280;31345;51.522;10.702;2023-02-13T05:57:27;101217.16;;;4.98;100.00
45621;BME280;31345;51.522;10.702;2023-02-13T06:00:00;101215.34;;;5.06;100.00
45621;BME280;31345;51.522;10.702;2023-02-13T06:02:33;101217.06;;;5.07;100.00
45621;BME280;31345;51.522;10.702;2023-02-13T06:05:06;101217.06;;;5.06;100.00
45621;BME280;31345;51.522;10.702;2023-02-13T06:07:39;101221.44;;;5.04;100.00
45621;BME280;31345;51.522;10.702;2023-02-13T06:10:07;101221.47;;;4.99;100.00
45621;BME280;31345;51.522;10.702;2023-02-13T06:12:39;101231.84;;;4.96;100.00
45621;BME280;31345;51.522;10.702;2023-02-13T06:15:14;101236.28;;;4.84;100.00
45621;BME280;31345;51.522;10.702;2023-02-13T06:17:50;101229.31;;;4.90;100.00
45621;BME280;31345;51.522;10.702;2023-02-13T06:20:22;101238.00;;;4.81;100.00
45621;BME280;31345;51.522;10.702;2023-02-13T06:22:55;101237.16;;;4.80;100.00
45621;BME280;31345;51.522;10.702;2023-02-13T06:25:23;101238.91;;;4.77;100.00
45621;BME280;31345;51.522;10.702;2023-02-13T06:27:55;101238.03;;;4.76;100.00
45621;BME280;31345;51.522;10.702;2023-02-13T06:30:28;101239.81;;;4.66;100.00
45621;BME280;31345;51.522;10.702;2023-02-13T06:32:57;101235.53;;;4.67;100.00
45621;BME280;31345;51.522;10.702;2023-02-13T06:35:30;101234.66;;;4.66;100.00
45621;BME280;31345;51.522;10.702;2023-02-13T06:37:57;101240.69;;;4.73;100.00
45621;BME280;31345;51.522;10.702;2023-02-13T06:40:25;101238.97;;;4.67;100.00
45621;BME280;31345;51.522;10.702;2023-02-13T06:42:57;101243.28;;;4.71;100.00
45621;BME280;31345;51.522;10.702;2023-02-13T06:45:30;101244.97;;;4.76;100.00
45621;BME280;31345;51.522;10.702;2023-02-13T06:48:04;101244.19;;;4.64;100.00
45621;BME280;31345;51.522;10.702;2023-02-13T06:50:32;101248.47;;;4.65;100.00
45621;BME280;31345;51.522;10.702;2023-02-13T06:53:05;101247.66;;;4.62;100.00
45621;BME280;31345;51.522;10.702;2023-02-13T06:55:38;101251.13;;;4.57;100.00
45621;BME280;31345;51.522;10.702;2023-02-13T06:58:05;101252.84;;;4.58;100.00
45621;BME280;31345;51.522;10.702;2023-02-13T07:00:38;101262.38;;;4.55;100.00
45621;BME280;31345;51.522;10.702;2023-02-13T07:03:12;101257.19;;;4.55;100.00
45621;BME280;31345;51.522;10.702;2023-02-13T07:05:45;101259.75;;;4.59;100.00
45621;BME280;31345;51.522;10.702;2023-02-13T07:08:12;101257.22;;;4.52;100.00
45621;BME280;31345;51.522;10.702;2023-02-13T07:10:45;101258.94;;;4.50;100.00
45621;BME280;31345;51.522;10.702;2023-02-13T07:13:12;101270.16;;;4.53;100.00
45621;BME280;31345;51.522;10.702;2023-02-13T07:15:40;101260.69;;;4.47;100.00
45621;BME280;31345;51.522;10.702;2023-02-13T07:18:14;101265.81;;;4.57;100.00
45621;BME280;31345;51.522;10.702;2023-02-13T07:20:47;101264.97;;;4.53;100.00
45621;BME280;31345;51.522;10.702;2023-02-13T07:23:15;101262.38;;;4.53;100.00
45621;BME280;31345;51.522;10.702;2023-02-13T07:25:47;101260.69;;;4.49;100.00
45621;BME280;31345;51.522;10.702;2023-02-13T07:28:20;101262.41;;;4.45;100.00
45621;BME280;31345;51.522;10.702;2023-02-13T07:30:52;101275.34;;;4.50;100.00
45621;BME280;31345;51.522;10.702;2023-02-13T07:33:26;101282.22;;;4.56;100.00
45621;BME280;31345;51.522;10.702;2023-02-13T07:35:54;101278.69;;;4.68;100.00
45621;BME280;31345;51.522;10.702;2023-02-13T07:38:26;101283.06;;;4.63;100.00
45621;BME280;31345;51.522;10.702;2023-02-13T07:40:56;101275.34;;;4.55;100.00
45621;BME280;31345;51.522;10.702;2023-02-13T07:43:29;101284.00;;;4.51;100.00
45621;BME280;31345;51.522;10.702;2023-02-13T07:46:02;101280.53;;;4.53;100.00
45621;BME280;31345;51.522;10.702;2023-02-13T07:48:32;101284.81;;;4.56;100.00
45621;BME280;31345;51.522;10.702;2023-02-13T07:51:00;101288.25;;;4.59;100.00
45621;BME280;31345;51.522;10.702;2023-02-13T07:53:28;101283.94;;;4.60;100.00
45621;BME280;31345;51.522;10.702;2023-02-13T07:55:56;101287.34;;;4.62;100.00
45621;BME280;31345;51.522;10.702;2023-02-13T07:58:28;101286.47;;;4.68;100.00
45621;BME280;31345;51.522;10.702;2023-02-13T08:01:05;101276.09;;;4.69;100.00
45621;BME280;31345;51.522;10.702;2023-02-13T08:03:34;101281.28;;;4.66;100.00
45621;BME280;31345;51.522;10.702;2023-02-13T08:06:07;101272.59;;;4.77;100.00
45621;BME280;31345;51.522;10.702;2023-02-13T08:08:35;101277.84;;;4.69;100.00
45621;BME280;31345;51.522;10.702;2023-02-13T08:11:06;101272.59;;;4.77;100.00
45621;BME280;31345;51.522;10.702;2023-02-13T08:13:56;101277.84;;;4.67;100.00
45621;BME280;31345;51.522;10.702;2023-02-13T08:16:29;101282.16;;;4.70;100.00
45621;BME280;31345;51.522;10.702;2023-02-13T08:18:58;101280.50;;;4.55;100.00
45621;BME280;31345;51.522;10.702;2023-02-13T08:21:30;101285.63;;;4.66;100.00
45621;BME280;31345;51.522;10.702;2023-02-13T08:23:58;101289.06;;;4.68;100.00
45621;BME280;31345;51.522;10.702;2023-02-13T08:26:25;101283.84;;;4.77;100.00
45621;BME280;31345;51.522;10.702;2023-02-13T08:28:53;101281.19;;;4.83;100.00
45621;BME280;31345;51.522;10.702;2023-02-13T08:31:21;101281.25;;;4.76;100.00
45621;BME280;31345;51.522;10.702;2023-02-13T08:33:48;101276.88;;;4.87;100.00
45621;BME280;31345;51.522;10.702;2023-02-13T08:36:22;101273.31;;;4.96;100.00
45621;BME280;31345;51.522;10.702;2023-02-13T08:38:50;101274.22;;;4.90;100.00
45621;BME280;31345;51.522;10.702;2023-02-13T08:41:18;101277.69;;;4.89;100.00
45621;BME280;31345;51.522;10.702;2023-02-13T08:43:53;101275.00;;;5.05;100.00
45621;BME280;31345;51.522;10.702;2023-02-13T08:46:20;101278.50;;;5.01;100.00
45621;BME280;31345;51.522;10.702;2023-02-13T08:48:48;101277.59;;;5.05;100.00
45621;BME280;31345;51.522;10.702;2023-02-13T08:51:15;101270.63;;;5.08;100.00
45621;BME280;31345;51.522;10.702;2023-02-13T08:53:49;101271.47;;;5.15;100.00
45621;BME280;31345;51.522;10.702;2023-02-13T08:56:17;101275.00;;;5.06;100.00
45621;BME280;31345;51.522;10.702;2023-02-13T08:58:49;101271.44;;;5.18;100.00
45621;BME280;31345;51.522;10.702;2023-02-13T09:01:17;101278.25;;;5.32;100.00
45621;BME280;31345;51.522;10.702;2023-02-13T09:03:50;101271.34;;;5.31;100.00
45621;BME280;31345;51.522;10.702;2023-02-13T09:06:22;101277.44;;;5.27;100.00
45621;BME280;31345;51.522;10.702;2023-02-13T09:08:57;101273.97;;;5.26;100.00
45621;BME280;31345;51.522;10.702;2023-02-13T09:11:30;101285.16;;;5.30;100.00
45621;BME280;31345;51.522;10.702;2023-02-13T09:13:58;101273.91;;;5.34;100.00
45621;BME280;31345;51.522;10.702;2023-02-13T09:16:30;101279.91;;;5.39;100.00
45621;BME280;31345;51.522;10.702;2023-02-13T09:19:03;101279.91;;;5.41;100.00
45621;BME280;31345;51.522;10.702;2023-02-13T09:21:35;101278.09;;;5.50;100.00
45621;BME280;31345;51.522;10.702;2023-02-13T09:24:07;101283.34;;;5.43;100.00
45621;BME280;31345;51.522;10.702;2023-02-13T09:26:40;101288.56;;;5.38;100.00
45621;BME280;31345;51.522;10.702;2023-02-13T09:29:12;101287.69;;;5.41;100.00
45621;BME280;31345;51.522;10.702;2023-02-13T09:31:40;101285.13;;;5.34;100.00
45621;BME280;31345;51.522;10.702;2023-02-13T09:34:12;101282.47;;;5.42;100.00
45621;BME280;31345;51.522;10.702;2023-02-13T09:36:40;101281.72;;;5.31;100.00
45621;BME280;31345;51.522;10.702;2023-02-13T09:39:14;101288.56;;;5.38;100.00
45621;BME280;31345;51.522;10.702;2023-02-13T09:41:43;101287.59;;;5.53;100.00
45621;BME280;31345;51.522;10.702;2023-02-13T09:44:15;101290.28;;;5.41;100.00
45621;BME280;31345;51.522;10.702;2023-02-13T09:46:57;101296.28;;;5.46;100.00
45621;BME280;31345;51.522;10.702;2023-02-13T09:49:27;101297.06;;;5.56;100.00
45621;BME280;31345;51.522;10.702;2023-02-13T09:52:02;101293.59;;;5.57;100.00
45621;BME280;31345;51.522;10.702;2023-02-13T09:54:31;101298.72;;;5.63;100.00
45621;BME280;31345;51.522;10.702;2023-02-13T09:57:00;101295.31;;;5.58;100.00
45621;BME280;31345;51.522;10.702;2023-02-13T09:59:41;101295.28;;;5.59;100.00
45621;BME280;31345;51.522;10.702;2023-02-13T10:02:27;101292.69;;;5.61;100.00
45621;BME280;31345;51.522;10.702;2023-02-13T10:05:09;101301.34;;;5.61;100.00
45621;BME280;31345;51.522;10.702;2023-02-13T10:07:48;101301.34;;;5.61;100.00
45621;BME280;31345;51.522;10.702;2023-02-13T10:10:30;101302.91;;;5.76;100.00
45621;BME280;31345;51.522;10.702;2023-02-13T10:13:18;101307.19;;;5.82;100.00
45621;BME280;31345;51.522;10.702;2023-02-13T10:16:01;101306.38;;;5.77;100.00
45621;BME280;31345;51.522;10.702;2023-02-13T10:18:40;101306.03;;;6.10;100.00
45621;BME280;31345;51.522;10.702;2023-02-13T10:21:18;101298.38;;;5.96;100.00
45621;BME280;31345;51.522;10.702;2023-02-13T10:23:57;101292.44;;;5.86;100.00
45621;BME280;31345;51.522;10.702;2023-02-13T10:26:36;101293.31;;;5.85;100.00
45621;BME280;31345;51.522;10.702;2023-02-13T10:29:16;101296.50;;;6.12;100.00
45621;BME280;31345;51.522;10.702;2023-02-13T10:32:11;101294.97;;;5.94;100.00
45621;BME280;31345;51.522;10.702;2023-02-13T10:34:43;101292.28;;;5.98;100.00
45621;BME280;31345;51.522;10.702;2023-02-13T10:37:14;101286.28;;;5.96;100.00
45621;BME280;31345;51.522;10.702;2023-02-13T10:39:44;101287.09;;;5.98;100.00
45621;BME280;31345;51.522;10.702;2023-02-13T10:42:20;101284.53;;;5.97;100.00
45621;BME280;31345;51.522;10.702;2023-02-13T10:45:02;101280.06;;;6.08;100.00
45621;BME280;31345;51.522;10.702;2023-02-13T10:47:49;101274.00;;;6.09;100.00
45621;BME280;31345;51.522;10.702;2023-02-13T10:50:22;101276.63;;;6.08;100.00
45621;BME280;31345;51.522;10.702;2023-02-13T10:53:03;101277.56;;;6.02;100.00
45621;BME280;31345;51.522;10.702;2023-02-13T10:55:58;101276.53;;;6.12;100.00
45621;BME280;31345;51.522;10.702;2023-02-13T10:58:35;101275.59;;;6.20;100.00
45621;BME280;31345;51.522;10.702;2023-02-13T11:01:15;101272.34;;;6.05;100.00
45621;BME280;31345;51.522;10.702;2023-02-13T11:04:03;101270.56;;;6.06;100.00
45621;BME280;31345;51.522;10.702;2023-02-13T11:06:32;101276.69;;;6.00;100.00
45621;BME280;31345;51.522;10.702;2023-02-13T11:09:06;101269.44;;;6.28;100.00
45621;BME280;31345;51.522;10.702;2023-02-13T11:11:35;101267.56;;;6.42;100.00
45621;BME280;31345;51.522;10.702;2023-02-13T11:14:15;101265.03;;;6.35;100.00
45621;BME280;31345;51.522;10.702;2023-02-13T11:16:57;101262.53;;;6.27;100.00
45621;BME280;31345;51.522;10.702;2023-02-13T11:19:33;101255.81;;;6.11;100.00
45621;BME280;31345;51.522;10.702;2023-02-13T11:22:04;101253.75;;;6.36;100.00
45621;BME280;31345;51.522;10.702;2023-02-13T11:24:41;101255.38;;;6.45;100.00
45621;BME280;31345;51.522;10.702;2023-02-13T11:27:11;101253.69;;;6.41;100.00
45621;BME280;31345;51.522;10.702;2023-02-13T11:29:53;101253.06;;;6.23;100.00
45621;BME280;31345;51.522;10.702;2023-02-13T11:32:27;101254.81;;;6.21;100.00
45621;BME280;31345;51.522;10.702;2023-02-13T11:35:25;101253.16;;;6.14;100.00
45621;BME280;31345;51.522;10.702;2023-02-13T11:38:11;101254.56;;;6.40;100.00
45621;BME280;31345;51.522;10.702;2023-02-13T11:40:46;101237.28;;;6.37;100.00
45621;BME280;31345;51.522;10.702;2023-02-13T11:43:30;101244.06;;;6.46;100.00
45621;BME280;31345;51.522;10.702;2023-02-13T11:46:06;101244.53;;;6.13;100.00
45621;BME280;31345;51.522;10.702;2023-02-13T11:48:41;101250.50;;;6.20;100.00
45621;BME280;31345;51.522;10.702;2023-02-13T11:51:14;101252.47;;;6.01;100.00
45621;BME280;31345;51.522;10.702;2023-02-13T11:53:47;101243.44;;;6.32;100.00
45621;BME280;31345;51.522;10.702;2023-02-13T11:56:20;101240.00;;;6.26;100.00
45621;BME280;31345;51.522;10.702;2023-02-13T11:59:00;101245.81;;;6.49;100.00
45621;BME280;31345;51.522;10.702;2023-02-13T12:01:29;101242.66;;;6.25;100.00
45621;BME280;31345;51.522;10.702;2023-02-13T12:04:05;101239.69;;;6.53;100.00
45621;BME280;31345;51.522;10.702;2023-02-13T12:06:38;101236.53;;;6.29;100.00
45621;BME280;31345;51.522;10.702;2023-02-13T12:09:11;101230.41;;;6.33;100.00
45621;BME280;31345;51.522;10.702;2023-02-13T12:11:43;101234.75;;;6.31;100.00
45621;BME280;31345;51.522;10.702;2023-02-13T12:14:16;101230.47;;;6.28;100.00
45621;BME280;31345;51.522;10.702;2023-02-13T12:16:54;101233.66;;;6.48;100.00
45621;BME280;31345;51.522;10.702;2023-02-13T12:19:34;101221.50;;;6.53;100.00
45621;BME280;31345;51.522;10.702;2023-02-13T12:22:28;101224.75;;;6.64;100.00
45621;BME280;31345;51.522;10.702;2023-02-13T12:25:25;101221.56;;;6.47;100.00
45621;BME280;31345;51.522;10.702;2023-02-13T12:28:06;101214.44;;;6.60;100.00
45621;BME280;31345;51.522;10.702;2023-02-13T12:31:06;101221.53;;;6.50;100.00
45621;BME280;31345;51.522;10.702;2023-02-13T12:36:55;101206.63;;;6.63;100.00
45621;BME280;31345;51.522;10.702;2023-02-13T12:39:33;101204.75;;;6.71;100.00
45621;BME280;31345;51.522;10.702;2023-02-13T12:42:24;101195.56;;;6.48;100.00
45621;BME280;31345;51.522;10.702;2023-02-13T12:45:16;101185.91;;;6.55;100.00
45621;BME280;31345;51.522;10.702;2023-02-13T12:48:07;101179.22;;;6.40;100.00
45621;BME280;31345;51.522;10.702;2023-02-13T12:51:27;101185.31;;;6.39;100.00
45621;BME280;31345;51.522;10.702;2023-02-13T12:54:21;101177.34;;;6.50;100.00
45621;BME280;31345;51.522;10.702;2023-02-13T12:57:09;101177.41;;;6.45;100.00
45621;BME280;31345;51.522;10.702;2023-02-13T12:59:59;101181.69;;;6.49;100.00
45621;BME280;31345;51.522;10.702;2023-02-13T13:02:55;101177.50;;;6.94;100.00
45621;BME280;31345;51.522;10.702;2023-02-13T13:05:42;101182.88;;;6.85;100.00
45621;BME280;31345;51.522;10.702;2023-02-13T13:08:30;101178.88;;;6.62;100.00
45621;BME280;31345;51.522;10.702;2023-02-13T13:11:14;101182.28;;;6.67;100.00
45621;BME280;31345;51.522;10.702;2023-02-13T13:14:01;101184.75;;;6.75;100.00
45621;BME280;31345;51.522;10.702;2023-02-13T13:16:39;101172.78;;;6.64;100.00
45621;BME280;31345;51.522;10.702;2023-02-13T13:19:15;101171.91;;;6.67;100.00
45621;BME280;31345;51.522;10.702;2023-02-13T13:21:50;101167.66;;;6.61;100.00
45621;BME280;31345;51.522;10.702;2023-02-13T13:24:29;101167.16;;;6.91;100.00
45621;BME280;31345;51.522;10.702;2023-02-13T13:26:59;101169.38;;;6.61;100.00
45621;BME280;31345;51.522;10.702;2023-02-13T13:29:40;101168.13;;;6.87;100.00
45621;BME280;31345;51.522;10.702;2023-02-13T13:32:13;101175.97;;;6.84;100.00